Time,TemperatureF,DewpointF,PressureIn,WindDirection,WindDirectionDegrees,WindSpeedMPH,WindSpeedGustMPH,Humidity,HourlyPrecipIn,Conditions,Clouds,dailyrainin,SoftwareType,DateUTC
2013-10-03 00:08:00,59.7,32.0,29.87,ESE,120,0.0,0.0,35,0.00,,,0.00,Wunderground v.1.15,2013-10-03 06:08:00,
2013-10-03 00:13:00,59.0,33.4,29.87,ESE,120,0.0,0.0,38,0.00,,,0.00,Wunderground v.1.15,2013-10-03 06:13:00,
2013-10-03 00:23:00,57.8,32.3,29.86,ESE,120,0.0,0.0,38,0.00,,,0.00,Wunderground v.1.15,2013-10-03 06:23:00,
2013-10-03 00:33:00,57.5,32.1,29.86,ESE,120,0.0,0.0,38,0.00,,,0.00,Wunderground v.1.15,2013-10-03 06:33:00,
2013-10-03 00:43:00,57.3,31.9,29.86,ESE,120,0.0,0.0,38,0.00,,,0.00,Wunderground v.1.15,2013-10-03 06:43:00,
2013-10-03 00:48:00,57.5,31.4,29.86,SE,134,0.0,1.0,37,0.00,,,0.00,Wunderground v.1.15,2013-10-03 06:48:00,
2013-10-03 00:58:00,58.8,31.2,29.86,ESE,121,1.0,1.0,35,0.00,,,0.00,Wunderground v.1.15,2013-10-03 06:58:00,
2013-10-03 01:08:00,59.7,31.3,29.86,SE,129,1.0,2.0,34,0.00,,,0.00,Wunderground v.1.15,2013-10-03 07:08:00,
2013-10-03 01:18:00,61.1,31.8,29.86,SSE,152,2.0,2.0,33,0.00,,,0.00,Wunderground v.1.15,2013-10-03 07:18:00,
2013-10-03 01:28:00,60.8,32.2,29.86,SE,124,1.0,2.0,34,0.00,,,0.00,Wunderground v.1.15,2013-10-03 07:28:00,
2013-10-03 01:38:00,60.6,32.1,29.86,SE,139,1.0,1.0,34,0.00,,,0.00,Wunderground v.1.15,2013-10-03 07:38:00,
2013-10-03 01:48:00,60.4,32.6,29.86,SE,138,2.0,2.0,35,0.00,,,0.00,Wunderground v.1.15,2013-10-03 07:48:00,
2013-10-03 01:58:00,60.4,32.6,29.86,SE,134,3.0,4.0,35,0.00,,,0.00,Wunderground v.1.15,2013-10-03 07:58:00,
2013-10-03 02:08:00,60.5,32.7,29.86,SE,143,3.0,3.0,35,0.00,,,0.00,Wunderground v.1.15,2013-10-03 08:08:00,
2013-10-03 02:13:00,60.4,32.6,29.86,SSE,165,3.0,3.0,35,0.00,,,0.00,Wunderground v.1.15,2013-10-03 08:13:00,
2013-10-03 02:23:00,60.3,32.5,29.86,SSE,152,3.0,3.0,35,0.00,,,0.00,Wunderground v.1.15,2013-10-03 08:23:00,
2013-10-03 02:33:00,60.0,32.9,29.86,SE,131,3.0,3.0,36,0.00,,,0.00,Wunderground v.1.15,2013-10-03 08:33:00,
2013-10-03 02:43:00,59.7,32.7,29.86,SE,132,3.0,3.0,36,0.00,,,0.00,Wunderground v.1.15,2013-10-03 08:43:00,
2013-10-03 02:53:00,59.6,33.3,29.86,SSE,162,2.0,3.0,37,0.00,,,0.00,Wunderground v.1.15,2013-10-03 08:53:00,
2013-10-03 02:58:00,59.6,33.3,29.86,SSE,149,1.0,1.0,37,0.00,,,0.00,Wunderground v.1.15,2013-10-03 08:58:00,
2013-10-03 03:08:00,59.6,32.6,29.86,SSE,149,1.0,4.0,36,0.00,,,0.00,Wunderground v.1.15,2013-10-03 09:08:00,
2013-10-03 03:18:00,59.3,33.0,29.86,SE,145,3.0,3.0,37,0.00,,,0.00,Wunderground v.1.15,2013-10-03 09:18:00,
2013-10-03 03:28:00,59.2,32.9,29.86,SE,139,2.0,2.0,37,0.00,,,0.00,Wunderground v.1.15,2013-10-03 09:28:00,
2013-10-03 03:38:00,58.8,33.2,29.86,SE,145,2.0,4.0,38,0.00,,,0.00,Wunderground v.1.15,2013-10-03 09:38:00,
2013-10-03 03:48:00,58.6,33.0,29.86,SSE,152,2.0,2.0,38,0.00,,,0.00,Wunderground v.1.15,2013-10-03 09:48:00,
2013-10-03 03:58:00,58.2,32.7,29.86,SE,134,2.0,2.0,38,0.00,,,0.00,Wunderground v.1.15,2013-10-03 09:58:00,
2013-10-03 04:08:00,58.0,32.5,29.86,East,95,2.0,2.0,38,0.00,,,0.00,Wunderground v.1.15,2013-10-03 10:08:00,
2013-10-03 04:13:00,57.9,32.4,29.86,ESE,121,2.0,3.0,38,0.00,,,0.00,Wunderground v.1.15,2013-10-03 10:13:00,
2013-10-03 04:23:00,57.8,32.3,29.86,SE,143,2.0,2.0,38,0.00,,,0.00,Wunderground v.1.15,2013-10-03 10:23:00,
2013-10-03 04:33:00,57.4,32.6,29.86,SE,134,1.0,2.0,39,0.00,,,0.00,Wunderground v.1.15,2013-10-03 10:33:00,
2013-10-03 04:43:00,57.0,32.3,29.86,SE,128,1.0,2.0,39,0.00,,,0.00,Wunderground v.1.15,2013-10-03 10:43:00,
2013-10-03 04:53:00,56.7,32.6,29.86,SE,136,2.0,2.0,40,0.00,,,0.00,Wunderground v.1.15,2013-10-03 10:53:00,
2013-10-03 04:58:00,56.7,32.0,29.86,ESE,122,3.0,3.0,39,0.00,,,0.00,Wunderground v.1.15,2013-10-03 10:58:00,
2013-10-03 05:08:00,56.5,32.4,29.86,SE,129,2.0,2.0,40,0.00,,,0.00,Wunderground v.1.15,2013-10-03 11:08:00,
2013-10-03 05:18:00,56.3,32.3,29.86,SE,141,1.0,2.0,40,0.00,,,0.00,Wunderground v.1.15,2013-10-03 11:18:00,
2013-10-03 05:28:00,56.0,32.6,29.86,ESE,119,1.0,1.0,41,0.00,,,0.00,Wunderground v.1.15,2013-10-03 11:28:00,
2013-10-03 05:38:00,54.6,33.1,29.86,ESE,118,0.0,0.0,44,0.00,,,0.00,Wunderground v.1.15,2013-10-03 11:38:00,
2013-10-03 05:48:00,53.3,33.6,29.86,West,277,0.0,0.0,47,0.00,,,0.00,Wunderground v.1.15,2013-10-03 11:48:00,
2013-10-03 05:58:00,51.7,33.6,29.86,West,277,0.0,0.0,50,0.00,,,0.00,Wunderground v.1.15,2013-10-03 11:58:00,
2013-10-03 06:08:00,50.5,34.0,29.86,West,277,0.0,0.0,53,0.00,,,0.00,Wunderground v.1.15,2013-10-03 12:08:00,
2013-10-03 06:13:00,49.9,33.9,29.86,SE,128,0.0,0.0,54,0.00,,,0.00,Wunderground v.1.15,2013-10-03 12:13:00,
2013-10-03 06:23:00,49.5,34.4,29.86,SE,129,0.0,0.0,56,0.00,,,0.00,Wunderground v.1.15,2013-10-03 12:23:00,
2013-10-03 06:33:00,49.4,34.8,29.86,SE,128,0.0,0.0,57,0.00,,,0.00,Wunderground v.1.15,2013-10-03 12:33:00,
2013-10-03 06:43:00,49.7,34.2,29.86,SE,127,0.0,0.0,55,0.00,,,0.00,Wunderground v.1.15,2013-10-03 12:43:00,
2013-10-03 06:53:00,49.1,34.1,29.87,SE,127,0.0,0.0,56,0.00,,,0.00,Wunderground v.1.15,2013-10-03 12:53:00,
2013-10-03 06:58:00,48.7,34.6,29.87,SE,125,0.0,0.0,58,0.00,,,0.00,Wunderground v.1.15,2013-10-03 12:58:00,
2013-10-03 07:08:00,47.9,34.3,29.87,SE,127,0.0,0.0,59,0.00,,,0.00,Wunderground v.1.15,2013-10-03 13:08:00,
2013-10-03 07:18:00,47.6,34.8,29.87,SE,127,0.0,0.0,61,0.00,,,0.00,Wunderground v.1.15,2013-10-03 13:18:00,
2013-10-03 07:28:00,47.7,34.9,29.87,SE,125,0.0,0.0,61,0.00,,,0.00,Wunderground v.1.15,2013-10-03 13:28:00,
2013-10-03 07:38:00,48.3,35.5,29.87,SE,132,0.0,1.0,61,0.00,,,0.00,Wunderground v.1.15,2013-10-03 13:38:00,
2013-10-03 07:43:00,49.1,36.2,29.87,ESE,117,0.0,1.0,61,0.00,,,0.00,Wunderground v.1.15,2013-10-03 13:43:00,
2013-10-03 07:53:00,51.3,35.2,29.88,ESE,121,0.0,1.0,54,0.00,,,0.00,Wunderground v.1.15,2013-10-03 13:53:00,
2013-10-03 07:58:00,52.7,36.0,29.88,ESE,122,0.0,0.0,53,0.00,,,0.00,Wunderground v.1.15,2013-10-03 13:58:00,
2013-10-03 08:08:00,53.3,37.1,29.88,WNW,302,0.0,0.0,54,0.00,,,0.00,Wunderground v.1.15,2013-10-03 14:08:00,
2013-10-03 08:13:00,53.4,36.7,29.88,West,265,0.0,0.0,53,0.00,,,0.00,Wunderground v.1.15,2013-10-03 14:13:00,
2013-10-03 08:23:00,53.7,37.0,29.88,West,264,0.0,0.0,53,0.00,,,0.00,Wunderground v.1.15,2013-10-03 14:23:00,
2013-10-03 08:33:00,54.8,38.0,29.88,SSE,156,0.0,0.0,53,0.00,,,0.00,Wunderground v.1.15,2013-10-03 14:33:00,
2013-10-03 08:43:00,57.6,35.8,29.88,SE,125,1.0,1.0,44,0.00,,,0.00,Wunderground v.1.15,2013-10-03 14:43:00,
2013-10-03 08:53:00,60.3,35.9,29.89,SE,146,2.0,3.0,40,0.00,,,0.00,Wunderground v.1.15,2013-10-03 14:53:00,
2013-10-03 08:58:00,61.2,35.4,29.89,SSE,155,1.0,2.0,38,0.00,,,0.00,Wunderground v.1.15,2013-10-03 14:58:00,
2013-10-03 09:08:00,62.1,35.5,29.88,South,186,2.0,2.0,37,0.00,,,0.00,Wunderground v.1.15,2013-10-03 15:08:00,
2013-10-03 09:18:00,62.8,35.4,29.88,SE,141,2.0,2.0,36,0.00,,,0.00,Wunderground v.1.15,2013-10-03 15:18:00,
2013-10-03 09:28:00,62.9,35.5,29.88,SE,141,3.0,4.0,36,0.00,,,0.00,Wunderground v.1.15,2013-10-03 15:28:00,
2013-10-03 09:38:00,63.4,36.0,29.88,SSE,152,4.0,4.0,36,0.00,,,0.00,Wunderground v.1.15,2013-10-03 15:38:00,
2013-10-03 09:48:00,64.5,36.2,29.88,SE,141,2.0,6.0,35,0.00,,,0.00,Wunderground v.1.15,2013-10-03 15:48:00,
2013-10-03 09:58:00,65.2,37.6,29.88,South,191,2.0,2.0,36,0.00,,,0.00,Wunderground v.1.15,2013-10-03 15:58:00,
2013-10-03 10:08:00,65.5,36.4,29.88,South,174,3.0,3.0,34,0.00,,,0.00,Wunderground v.1.15,2013-10-03 16:08:00,
2013-10-03 10:13:00,65.6,34.9,29.88,NW,304,3.0,3.0,32,0.00,,,0.00,Wunderground v.1.15,2013-10-03 16:13:00,
2013-10-03 10:23:00,66.2,36.2,29.88,SSE,166,2.0,2.0,33,0.00,,,0.00,Wunderground v.1.15,2013-10-03 16:23:00,
2013-10-03 10:33:00,66.6,36.6,29.87,WSW,243,2.0,3.0,33,0.00,,,0.00,Wunderground v.1.15,2013-10-03 16:33:00,
2013-10-03 10:43:00,67.0,36.1,29.87,SW,214,1.0,2.0,32,0.00,,,0.00,Wunderground v.1.15,2013-10-03 16:43:00,
2013-10-03 10:53:00,67.7,36.8,29.87,SW,236,2.0,3.0,32,0.00,,,0.00,Wunderground v.1.15,2013-10-03 16:53:00,
2013-10-03 10:58:00,67.9,36.9,29.86,SSE,162,1.0,4.0,32,0.00,,,0.00,Wunderground v.1.15,2013-10-03 16:58:00,
2013-10-03 11:08:00,68.3,36.5,29.86,SSE,157,2.0,4.0,31,0.00,,,0.00,Wunderground v.1.15,2013-10-03 17:08:00,
2013-10-03 11:18:00,68.2,36.4,29.85,WSW,250,2.0,2.0,31,0.00,,,0.00,Wunderground v.1.15,2013-10-03 17:18:00,
2013-10-03 11:28:00,68.8,35.2,29.85,North,5,3.0,3.0,29,0.00,,,0.00,Wunderground v.1.15,2013-10-03 17:28:00,
2013-10-03 11:33:00,68.4,35.7,29.85,West,278,2.0,3.0,30,0.00,,,0.00,Wunderground v.1.15,2013-10-03 17:33:00,
2013-10-03 11:43:00,69.2,36.4,29.84,NNW,343,1.0,2.0,30,0.00,,,0.00,Wunderground v.1.15,2013-10-03 17:43:00,
2013-10-03 11:53:00,69.1,37.2,29.84,NNW,347,1.0,2.0,31,0.00,,,0.00,Wunderground v.1.15,2013-10-03 17:53:00,
2013-10-03 11:58:00,69.6,35.0,29.84,WSW,238,1.0,1.0,28,0.00,,,0.00,Wunderground v.1.15,2013-10-03 17:58:00,
2013-10-03 12:08:00,70.5,33.9,29.83,SSE,153,2.0,2.0,26,0.00,,,0.00,Wunderground v.1.15,2013-10-03 18:08:00,
2013-10-03 12:13:00,70.9,32.3,29.83,SSE,160,3.0,3.0,24,0.00,,,0.00,Wunderground v.1.15,2013-10-03 18:13:00,
2013-10-03 12:23:00,71.8,32.0,29.83,SW,225,2.0,2.0,23,0.00,,,0.00,Wunderground v.1.15,2013-10-03 18:23:00,
2013-10-03 12:33:00,71.2,33.6,29.82,SSE,156,2.0,3.0,25,0.00,,,0.00,Wunderground v.1.15,2013-10-03 18:33:00,
2013-10-03 12:43:00,72.2,28.9,29.81,WNW,300,3.0,4.0,20,0.00,,,0.00,Wunderground v.1.15,2013-10-03 18:43:00,
2013-10-03 12:53:00,72.9,28.2,29.81,West,267,4.0,4.0,19,0.00,,,0.00,Wunderground v.1.15,2013-10-03 18:53:00,
2013-10-03 12:58:00,72.5,30.3,29.81,South,191,5.0,5.0,21,0.00,,,0.00,Wunderground v.1.15,2013-10-03 18:58:00,
2013-10-03 13:08:00,73.0,29.5,29.80,WSW,248,3.0,3.0,20,0.00,,,0.00,Wunderground v.1.15,2013-10-03 19:08:00,
2013-10-03 13:18:00,73.3,28.5,29.80,SE,131,4.0,4.0,19,0.00,,,0.00,Wunderground v.1.15,2013-10-03 19:18:00,
2013-10-03 13:28:00,73.6,31.2,29.79,SSW,208,2.0,4.0,21,0.00,,,0.00,Wunderground v.1.15,2013-10-03 19:28:00,
2013-10-03 13:33:00,74.1,29.2,29.78,West,260,2.0,4.0,19,0.00,,,0.00,Wunderground v.1.15,2013-10-03 19:33:00,
2013-10-03 13:43:00,74.4,28.1,29.77,South,170,4.0,4.0,18,0.00,,,0.00,Wunderground v.1.15,2013-10-03 19:43:00,
2013-10-03 13:53:00,75.1,30.0,29.77,NW,304,1.0,5.0,19,0.00,,,0.00,Wunderground v.1.15,2013-10-03 19:53:00,
2013-10-03 13:58:00,75.4,28.9,29.76,SSW,195,2.0,2.0,18,0.00,,,0.00,Wunderground v.1.15,2013-10-03 19:58:00,
2013-10-03 14:08:00,76.5,25.4,29.75,South,191,2.0,4.0,15,0.00,,,0.00,Wunderground v.1.15,2013-10-03 20:08:00,
2013-10-03 14:13:00,76.6,27.0,29.75,ESE,112,3.0,7.0,16,0.00,,,0.00,Wunderground v.1.15,2013-10-03 20:13:00,
2013-10-03 14:23:00,76.7,27.1,29.74,WSW,246,4.0,5.0,16,0.00,,,0.00,Wunderground v.1.15,2013-10-03 20:23:00,
2013-10-03 14:33:00,76.0,28.0,29.74,WSW,250,5.0,6.0,17,0.00,,,0.00,Wunderground v.1.15,2013-10-03 20:33:00,
2013-10-03 14:43:00,76.5,29.8,29.74,SE,132,4.0,6.0,18,0.00,,,0.00,Wunderground v.1.15,2013-10-03 20:43:00,
2013-10-03 14:53:00,75.9,30.7,29.74,ESE,115,6.0,7.0,19,0.00,,,0.00,Wunderground v.1.15,2013-10-03 20:53:00,
2013-10-03 14:58:00,75.6,31.7,29.74,SW,233,6.0,6.0,20,0.00,,,0.00,Wunderground v.1.15,2013-10-03 20:58:00,
2013-10-03 15:08:00,75.6,31.7,29.73,SSW,197,4.0,4.0,20,0.00,,,0.00,Wunderground v.1.15,2013-10-03 21:08:00,
2013-10-03 15:18:00,75.4,31.5,29.73,SE,146,5.0,8.0,20,0.00,,,0.00,Wunderground v.1.15,2013-10-03 21:18:00,
2013-10-03 15:28:00,75.5,32.8,29.72,SSW,200,5.0,5.0,21,0.00,,,0.00,Wunderground v.1.15,2013-10-03 21:28:00,
2013-10-03 15:38:00,75.6,30.4,29.72,SE,132,5.0,5.0,19,0.00,,,0.00,Wunderground v.1.15,2013-10-03 21:38:00,
2013-10-03 15:48:00,75.7,30.5,29.72,SSE,149,5.0,5.0,19,0.00,,,0.00,Wunderground v.1.15,2013-10-03 21:48:00,
2013-10-03 15:58:00,75.8,31.8,29.71,East,79,4.0,4.0,20,0.00,,,0.00,Wunderground v.1.15,2013-10-03 21:58:00,
2013-10-03 16:08:00,76.4,31.1,29.70,SSW,204,4.0,6.0,19,0.00,,,0.00,Wunderground v.1.15,2013-10-03 22:08:00,
2013-10-03 16:13:00,76.0,30.7,29.70,SSW,207,6.0,6.0,19,0.00,,,0.00,Wunderground v.1.15,2013-10-03 22:13:00,
2013-10-03 16:23:00,76.1,30.8,29.69,SSE,152,5.0,14.0,19,0.00,,,0.00,Wunderground v.1.15,2013-10-03 22:23:00,
2013-10-03 16:33:00,76.4,29.7,29.69,SE,145,5.0,13.0,18,0.00,,,0.00,Wunderground v.1.15,2013-10-03 22:33:00,
2013-10-03 16:43:00,76.5,29.8,29.68,ESE,103,6.0,9.0,18,0.00,,,0.00,Wunderground v.1.15,2013-10-03 22:43:00,
2013-10-03 16:53:00,76.8,27.2,29.68,South,191,5.0,7.0,16,0.00,,,0.00,Wunderground v.1.15,2013-10-03 22:53:00,
2013-10-03 16:58:00,76.8,27.2,29.68,South,186,7.0,7.0,16,0.00,,,0.00,Wunderground v.1.15,2013-10-03 22:58:00,
2013-10-03 17:08:00,76.8,27.2,29.67,SE,131,5.0,6.0,16,0.00,,,0.00,Wunderground v.1.15,2013-10-03 23:08:00,
2013-10-03 17:18:00,76.6,27.0,29.67,SE,139,7.0,8.0,16,0.00,,,0.00,Wunderground v.1.15,2013-10-03 23:18:00,
2013-10-03 17:28:00,76.8,27.2,29.67,SE,128,5.0,5.0,16,0.00,,,0.00,Wunderground v.1.15,2013-10-03 23:28:00,
2013-10-03 17:38:00,77.1,28.9,29.67,South,176,3.0,6.0,17,0.00,,,0.00,Wunderground v.1.15,2013-10-03 23:38:00,
2013-10-03 17:48:00,77.0,28.8,29.66,SE,125,3.0,3.0,17,0.00,,,0.00,Wunderground v.1.15,2013-10-03 23:48:00,
2013-10-03 19:18:00,71.4,31.6,29.66,SE,136,3.0,3.0,23,0.00,,,0.00,Wunderground v.1.15,2013-10-04 01:18:00,
2013-10-03 19:28:00,71.0,32.4,29.66,SSE,166,4.0,4.0,24,0.00,,,0.00,Wunderground v.1.15,2013-10-04 01:28:00,
2013-10-03 19:33:00,70.9,32.3,29.66,SE,134,4.0,5.0,24,0.00,,,0.00,Wunderground v.1.15,2013-10-04 01:33:00,
2013-10-03 19:43:00,70.6,32.0,29.66,ESE,103,4.0,4.0,24,0.00,,,0.00,Wunderground v.1.15,2013-10-04 01:43:00,
2013-10-03 19:53:00,70.7,32.1,29.66,SE,135,6.0,9.0,24,0.00,,,0.00,Wunderground v.1.15,2013-10-04 01:53:00,
2013-10-03 19:58:00,70.8,31.1,29.66,ESE,115,7.0,8.0,23,0.00,,,0.00,Wunderground v.1.15,2013-10-04 01:58:00,
2013-10-03 20:08:00,70.7,31.1,29.67,SE,128,7.0,11.0,23,0.00,,,0.00,Wunderground v.1.15,2013-10-04 02:08:00,
2013-10-03 20:13:00,70.5,30.9,29.67,SSE,158,7.0,11.0,23,0.00,,,0.00,Wunderground v.1.15,2013-10-04 02:13:00,
2013-10-03 20:23:00,69.9,31.4,29.68,South,172,6.0,7.0,24,0.00,,,0.00,Wunderground v.1.15,2013-10-04 02:23:00,
2013-10-03 20:33:00,69.2,30.8,29.69,SSE,151,6.0,6.0,24,0.00,,,0.00,Wunderground v.1.15,2013-10-04 02:33:00,
2013-10-03 20:43:00,68.7,30.4,29.69,SSE,148,5.0,8.0,24,0.00,,,0.00,Wunderground v.1.15,2013-10-04 02:43:00,
2013-10-03 20:48:00,68.4,30.2,29.70,SSE,149,5.0,6.0,24,0.00,,,0.00,Wunderground v.1.15,2013-10-04 02:48:00,
2013-10-03 20:58:00,68.0,30.8,29.70,South,181,4.0,6.0,25,0.00,,,0.00,Wunderground v.1.15,2013-10-04 02:58:00,
2013-10-03 21:08:00,67.9,29.7,29.71,SSW,207,4.0,4.0,24,0.00,,,0.00,Wunderground v.1.15,2013-10-04 03:08:00,
2013-10-03 21:18:00,67.8,30.7,29.71,South,169,3.0,3.0,25,0.00,,,0.00,Wunderground v.1.15,2013-10-04 03:18:00,
2013-10-03 21:28:00,67.6,30.5,29.72,SSE,159,4.0,4.0,25,0.00,,,0.00,Wunderground v.1.15,2013-10-04 03:28:00,
2013-10-03 21:33:00,67.3,30.2,29.72,SSE,156,3.0,4.0,25,0.00,,,0.00,Wunderground v.1.15,2013-10-04 03:33:00,
2013-10-03 21:43:00,66.7,30.7,29.72,SE,131,2.0,3.0,26,0.00,,,0.00,Wunderground v.1.15,2013-10-04 03:43:00,
2013-10-03 21:53:00,65.1,32.0,29.73,ESE,123,1.0,1.0,29,0.00,,,0.00,Wunderground v.1.15,2013-10-04 03:53:00,
2013-10-03 21:58:00,64.3,31.3,29.73,ESE,116,0.0,0.0,29,0.00,,,0.00,Wunderground v.1.15,2013-10-04 03:58:00,
2013-10-03 22:38:00,63.7,30.8,29.75,SE,136,1.0,1.0,29,0.00,,,0.00,Wunderground v.1.15,2013-10-04 04:38:00,
2013-10-03 22:43:00,63.4,31.4,29.75,ESE,105,1.0,1.0,30,0.00,,,0.00,Wunderground v.1.15,2013-10-04 04:43:00,
2013-10-03 22:48:00,63.1,31.1,29.75,ESE,105,1.0,1.0,30,0.00,,,0.00,Wunderground v.1.15,2013-10-04 04:48:00,
2013-10-03 22:58:00,62.7,30.8,29.76,ESE,117,1.0,1.0,30,0.00,,,0.00,Wunderground v.1.15,2013-10-04 04:58:00,
2013-10-03 23:03:00,62.6,30.7,29.76,SE,131,1.0,1.0,30,0.00,,,0.00,Wunderground v.1.15,2013-10-04 05:03:00,
2013-10-03 23:08:00,62.3,31.3,29.76,ESE,118,1.0,4.0,31,0.00,,,0.00,Wunderground v.1.15,2013-10-04 05:08:00,
2013-10-03 23:18:00,61.9,30.9,29.75,SSE,151,2.0,2.0,31,0.00,,,0.00,Wunderground v.1.15,2013-10-04 05:18:00,
2013-10-03 23:28:00,62.5,30.6,29.75,SE,145,3.0,3.0,30,0.00,,,0.00,Wunderground v.1.15,2013-10-04 05:28:00,
2013-10-03 23:38:00,62.0,31.0,29.75,ESE,114,3.0,3.0,31,0.00,,,0.00,Wunderground v.1.15,2013-10-04 05:38:00,
2013-10-03 23:48:00,61.8,30.8,29.75,ESE,110,3.0,4.0,31,0.00,,,0.00,Wunderground v.1.15,2013-10-04 05:48:00,
2013-10-03 23:53:00,61.7,30.7,29.75,SE,128,3.0,4.0,31,0.00,,,0.00,Wunderground v.1.15,2013-10-04 05:53:00,
2013-10-03 23:58:00,61.6,30.6,29.75,SE,143,3.0,3.0,31,0.00,,,0.00,Wunderground v.1.15,2013-10-04 05:58:00,